Flight Track Log - Related Links

Times and Time Zones

All times are in EDT time to prevent confusion due to time zone crossing. See the SWA4546 flight status page for this flight to view local times or setup timezone preferences in your user account.

Time Position Orientation Groundspeed Altitude Reporting Facility
EDT Latitude Longitude Course Direction KTS MPH feet Rate Location/Type
Sun 07:36:49 AM 30.1650 -97.7936 278° West 261 300 5,800  Level Houston Center
Sun 07:37:50 AM 30.2064 -97.8919 296° West 287 330 9,500 2,754 Climbing Houston Center
Sun 07:38:51 AM 30.2253 -97.9869 283° West 303 349 11,400 2,182 Climbing Houston Center
Sun 07:39:51 AM 30.2553 -98.0964 288° West 350 403 13,900 2,579 Climbing Houston Center
Sun 07:40:00 AM 30.4152 -97.9156 276° West  Level FlightAware Approximate
Sun 07:40:52 AM 30.2878 -98.2142 288° West 358 412 16,600  Level Houston Center
Sun 07:41:00 AM 30.4207 -98.0483 278° West  Level FlightAware Approximate
Sun 07:41:53 AM 30.3200 -98.3256 289° West 369 425 18,600  Level Houston Center
Sun 07:42:00 AM 30.4371 -98.1800 278° West  Level FlightAware Approximate
Sun 07:42:54 AM 30.3522 -98.4433 288° West 381 438 20,200  Level Houston Center
Sun 07:43:54 AM 30.3872 -98.5661 288° West 398 458 22,000 1,587 Climbing Houston Center
Sun 07:44:55 AM 30.4231 -98.6933 288° West 410 472 23,400 1,426 Climbing Houston Center
Sun 07:45:56 AM 30.4600 -98.8278 288° West 431 496 24,900 1,574 Climbing Houston Center
Sun 07:46:57 AM 30.4978 -98.9642 288° West 439 505 26,600 1,488 Climbing Houston Center
Sun 07:47:57 AM 30.5350 -99.0994 288° West 439 505 27,900 1,190 Climbing Houston Center
Sun 07:48:58 AM 30.5717 -99.2325 288° West 448 516 29,000 1,279 Climbing Houston Center
Sun 07:49:59 AM 30.6097 -99.3714 288° West 451 519 30,500 1,475 Climbing Houston Center
Sun 07:51:00 AM 30.6458 -99.5072 287° West 446 513 32,000 1,140 Climbing Houston Center
Sun 07:52:00 AM 30.6828 -99.6422 288° West 443 510 32,800 992 Climbing Houston Center
Sun 07:53:01 AM 30.7281 -99.8064 288° West 445 512 34,000 590 Climbing Houston Center
Sun 07:54:02 AM 30.7631 -99.9428 287° West 445 512 34,000  Level Houston Center
Sun 07:55:03 AM 30.8003 -100.0814 287° West 448 516 34,000  Level Houston Center
Sun 07:56:03 AM 30.8375 -100.2203 287° West 449 517 34,000  Level Houston Center
Sun 07:57:04 AM 30.8733 -100.3594 287° West 450 518 34,000  Level Houston Center
Sun 07:58:05 AM 30.9100 -100.4992 287° West 450 518 34,000  Level Houston Center
Sun 07:59:06 AM 30.9467 -100.6397 287° West 453 521 34,000  Level Houston Center
Sun 08:00:07 AM 30.9844 -100.7803 287° West 454 522 34,000  Level Houston Center
Sun 08:01:07 AM 31.0192 -100.9217 286° West 454 522 34,000  Level Houston Center
Sun 08:02:08 AM 31.0561 -101.0619 287° West 454 522 34,000  Level Houston Center
Sun 08:03:09 AM 31.0914 -101.2036 286° West 454 522 34,000  Level Houston Center
Sun 08:04:10 AM 31.1314 -101.3603 287° West 455 524 34,000  Level Houston Center
Sun 08:05:11 AM 31.1667 -101.5019 286° West 455 524 34,000  Level Houston Center
Sun 08:06:12 AM 31.2033 -101.6439 287° West 455 524 34,000  Level Houston Center
Sun 08:07:13 AM 31.2394 -101.7844 287° West 455 524 34,000  Level Houston Center
Sun 08:07:58 AM 31.2667 -101.8967 286° West 456 525 34,000  Level Albuquerque Center
Sun 08:08:59 AM 31.2989 -102.0350 285° West 475 547 34,000  Level Albuquerque Center
Sun 08:09:59 AM 31.3342 -102.1772 286° West 463 533 34,000  Level Albuquerque Center
Sun 08:10:59 AM 31.3692 -102.3194 286° West 459 528 34,000  Level Albuquerque Center
Sun 08:11:59 AM 31.4042 -102.4611 286° West 456 525 34,000  Level Albuquerque Center
Sun 08:13:00 AM 31.4450 -102.6292 286° West 454 522 34,000  Level Albuquerque Center
Sun 08:14:00 AM 31.4792 -102.7708 286° West 455 524 34,000  Level Albuquerque Center
Sun 08:15:00 AM 31.5125 -102.9142 285° West 454 522 34,000  Level Albuquerque Center
Sun 08:16:00 AM 31.5464 -103.0547 286° West 454 522 34,000  Level Albuquerque Center
Sun 08:17:01 AM 31.5811 -103.1994 286° West 458 527 34,000  Level Albuquerque Center
Sun 08:18:01 AM 31.6144 -103.3436 285° West 458 527 34,000  Level Albuquerque Center
Sun 08:19:01 AM 31.6425 -103.4653 285° West 458 527 34,000  Level Albuquerque Center
Sun 08:20:02 AM 31.6769 -103.6100 286° West 458 527 34,000 -50 Level Albuquerque Center
Sun 08:21:02 AM 31.7161 -103.7800 285° West 458 527 33,900  Descending Albuquerque Center
Sun 08:22:02 AM 31.7511 -103.9253 286° West 459 528 34,000 50 Climbing Albuquerque Center
Sun 08:23:03 AM 31.7831 -104.0694 285° West 459 528 34,000  Level Albuquerque Center
Sun 08:24:03 AM 31.8161 -104.2131 285° West 459 528 34,000  Level Albuquerque Center
Sun 08:25:03 AM 31.8483 -104.3550 285° West 457 526 34,000  Level Albuquerque Center
Sun 08:26:04 AM 31.8817 -104.5014 285° West 458 527 34,000  Level Albuquerque Center
Sun 08:27:04 AM 31.9147 -104.6436 285° West 458 527 34,000  Level Albuquerque Center
Sun 08:28:05 AM 31.9458 -104.7869 284° West 458 527 34,000  Level Albuquerque Center
Sun 08:29:05 AM 31.9778 -104.9289 285° West 458 527 34,000  Level Albuquerque Center
Sun 08:30:05 AM 32.0092 -105.0706 285° West 456 525 34,000  Level Albuquerque Center
Sun 08:31:06 AM 32.0392 -105.2119 284° West 452 520 34,000  Level Albuquerque Center
Sun 08:32:06 AM 32.0697 -105.3511 285° West 447 514 34,000  Level Albuquerque Center
Sun 08:33:07 AM 32.1014 -105.4933 285° West 447 514 34,000  Level Albuquerque Center
Sun 08:34:07 AM 32.1328 -105.6367 285° West 453 521 34,000  Level Albuquerque Center
Sun 08:35:08 AM 32.1633 -105.7814 284° West 454 522 34,000  Level Albuquerque Center
Sun 08:36:08 AM 32.1947 -105.9258 284° West 455 524 34,000 -50 Level Albuquerque Center
Sun 08:37:08 AM 32.2253 -106.0711 284° West 455 524 33,900  Descending Albuquerque Center
Sun 08:38:09 AM 32.2567 -106.2161 284° West 456 525 34,000 50 Climbing Albuquerque Center
Sun 08:39:09 AM 32.2864 -106.3608 284° West 457 526 34,000  Level Albuquerque Center
Sun 08:40:10 AM 32.3167 -106.5069 284° West 458 527 34,000  Level Albuquerque Center
Sun 08:41:10 AM 32.3533 -106.6811 284° West 458 527 34,000  Level Albuquerque Center
Sun 08:42:11 AM 32.3836 -106.8264 284° West 458 527 34,000  Level Albuquerque Center
Sun 08:43:11 AM 32.4139 -106.9708 284° West 456 525 34,000  Level Albuquerque Center
Sun 08:44:12 AM 32.4447 -107.1183 284° West 457 526 34,000  Level Albuquerque Center
Sun 08:45:12 AM 32.4694 -107.2700 281° West 460 529 34,000  Level Albuquerque Center
Sun 08:46:13 AM 32.5003 -107.4142 284° West 459 528 34,000 -50 Level Albuquerque Center
Sun 08:47:13 AM 32.5258 -107.5433 283° West 458 527 33,900  Descending Albuquerque Center
Sun 08:48:14 AM 32.5544 -107.6903 283° West 458 527 34,000 50 Climbing Albuquerque Center
Sun 08:49:14 AM 32.5875 -107.8558 283° West 458 527 34,000  Level Albuquerque Center
Sun 08:50:15 AM 32.6164 -108.0036 283° West 459 528 34,000  Level Albuquerque Center
Sun 08:51:15 AM 32.6456 -108.1517 283° West 459 528 34,000  Level Albuquerque Center
Sun 08:52:16 AM 32.6739 -108.3000 283° West 459 528 34,000  Level Albuquerque Center
Sun 08:53:16 AM 32.7047 -108.4467 284° West 459 528 34,000  Level Albuquerque Center
Sun 08:54:17 AM 32.7400 -108.5914 286° West 456 525 34,000  Level Albuquerque Center
Sun 08:55:18 AM 32.7722 -108.7378 285° West 458 527 34,000  Level Albuquerque Center
Sun 08:56:18 AM 32.8097 -108.8933 286° West 459 528 34,000  Level Albuquerque Center
Sun 08:57:19 AM 32.8425 -109.0389 285° West 459 528 34,000  Level Albuquerque Center
Sun 08:58:19 AM 32.8717 -109.1858 283° West 458 527 34,000  Level Albuquerque Center
Sun 08:59:20 AM 32.9053 -109.3344 285° West 459 528 34,000  Level Albuquerque Center
Sun 09:00:20 AM 32.9383 -109.4797 285° West 459 528 34,000  Level Albuquerque Center
Sun 09:01:21 AM 32.9703 -109.6267 285° West 459 528 34,000  Level Albuquerque Center
Sun 09:02:22 AM 33.0025 -109.7736 285° West 459 528 34,000  Level Albuquerque Center
Sun 09:03:22 AM 33.0350 -109.9206 285° West 459 528 34,000  Level Albuquerque Center
Sun 09:04:23 AM 33.0667 -110.0678 284° West 459 528 34,000  Level Albuquerque Center
Sun 09:05:23 AM 33.0983 -110.2167 284° West 461 531 34,000  Level Albuquerque Center
Sun 09:06:24 AM 33.1289 -110.3650 284° West 461 531 34,000  Level Albuquerque Center
Sun 09:07:25 AM 33.1608 -110.5144 284° West 462 532 34,000  Level Albuquerque Center
Sun 09:08:25 AM 33.1919 -110.6639 284° West 462 532 34,000  Level Albuquerque Center
Sun 09:09:26 AM 33.2242 -110.8203 284° West 463 533 34,000  Level Albuquerque Center
Sun 09:10:27 AM 33.2558 -110.9711 284° West 464 534 34,000  Level Albuquerque Center
Sun 09:11:27 AM 33.2856 -111.1197 283° West 463 533 34,000  Level Albuquerque Center
Sun 09:12:28 AM 33.3172 -111.2697 284° West 463 533 34,000  Level Albuquerque Center
Sun 09:13:29 AM 33.3464 -111.4197 283° West 463 533 34,000  Level Albuquerque Center
Sun 09:14:29 AM 33.3767 -111.5700 284° West 463 533 34,000  Level Albuquerque Center
Sun 09:15:30 AM 33.4061 -111.7217 283° West 464 534 34,000  Level Albuquerque Center
Sun 09:16:31 AM 33.4356 -111.8714 283° West 464 534 34,000  Level Albuquerque Center
Sun 09:17:31 AM 33.4647 -112.0208 283° West 463 533 34,000  Level Albuquerque Center
Sun 09:18:32 AM 33.4939 -112.1700 283° West 461 531 34,000  Level Albuquerque Center
Sun 09:19:33 AM 33.5231 -112.3186 283° West 461 531 34,000  Level Albuquerque Center
Sun 09:20:34 AM 33.5517 -112.4672 283° West 460 529 34,000  Level Albuquerque Center
Sun 09:21:34 AM 33.5803 -112.6192 283° West 457 526 34,000  Level Albuquerque Center
Sun 09:22:35 AM 33.6089 -112.7658 283° West 457 526 34,000  Level Albuquerque Center
Sun 09:23:36 AM 33.6411 -112.9417 282° West 456 525 34,000  Level Albuquerque Center
Sun 09:24:37 AM 33.6686 -113.0886 283° West 456 525 34,000  Level Albuquerque Center
Sun 09:25:38 AM 33.6947 -113.2361 282° West 456 525 34,000  Level Albuquerque Center
Sun 09:26:39 AM 33.7203 -113.3828 282° West 455 524 34,000  Level Albuquerque Center
Sun 09:27:39 AM 33.7514 -113.5314 284° West 455 524 34,000  Level Albuquerque Center
Sun 09:28:40 AM 33.7772 -113.6797 282° West 455 524 34,000  Level Albuquerque Center
Sun 09:29:41 AM 33.8042 -113.8281 282° West 455 524 34,000  Level Albuquerque Center
Sun 09:30:42 AM 33.8283 -113.9772 281° West 455 524 34,000  Level Albuquerque Center
Sun 09:31:43 AM 33.8525 -114.1242 281° West 453 521 34,000  Level Albuquerque Center
Sun 09:32:25 AM 33.8714 -114.2342 282° West 451 519 34,000  Level Los Angeles Center
Sun 09:33:26 AM 33.8956 -114.3803 281° West 448 516 34,000  Level Los Angeles Center
Sun 09:34:26 AM 33.9186 -114.5250 281° West 446 513 34,000  Level Los Angeles Center
Sun 09:35:28 AM 33.9419 -114.6714 281° West 445 512 34,000  Level Los Angeles Center
Sun 09:36:28 AM 33.9653 -114.8172 281° West 445 512 34,000  Level Los Angeles Center
Sun 09:37:29 AM 33.9881 -114.9622 281° West 445 512 34,000  Level Los Angeles Center
Sun 09:38:30 AM 34.0108 -115.1089 281° West 444 511 34,000  Level Los Angeles Center
Sun 09:39:31 AM 34.0389 -115.2856 281° West 445 512 34,000  Level Los Angeles Center
Sun 09:40:32 AM 34.0608 -115.4319 280° West 446 513 34,000  Level Los Angeles Center
Sun 09:41:33 AM 34.0839 -115.5778 281° West 447 514 34,000  Level Los Angeles Center
Sun 09:42:34 AM 34.1064 -115.7256 280° West 448 516 34,000  Level Los Angeles Center
Sun 09:43:36 AM 34.0975 -115.8739 266° West 451 519 34,000  Level Los Angeles Center
Sun 09:44:37 AM 34.0753 -116.0181 259° West 442 509 34,000 -197 Level Los Angeles Center
Sun 09:45:38 AM 34.0539 -116.1661 260° West 446 513 33,600 -1,033 Descending Los Angeles Center
Sun 09:46:39 AM 34.0319 -116.3089 260° West 440 506 31,900 -2,115 Descending Los Angeles Center
Sun 09:47:40 AM 34.0100 -116.4553 260° West 443 510 29,300 -2,852 Descending Los Angeles Center
Sun 09:48:41 AM 33.9961 -116.6047 264° West 449 517 26,100 -3,148 Descending Los Angeles Center
Sun 09:49:42 AM 33.9814 -116.7867 264° West 454 522 22,900 -2,732 Descending Los Angeles Center
Sun 09:50:44 AM 33.9697 -116.9336 265° West 449 517 20,500 -2,244 Descending Los Angeles Center
Sun 09:51:45 AM 33.9772 -117.0811 274° West 443 510 18,300 -2,164 Descending Los Angeles Center
Sun 09:52:46 AM 33.9842 -117.2078 274° West 436 502 16,100 -2,508 Descending Los Angeles Center
Sun 09:53:47 AM 33.9908 -117.3706 273° West 413 475 13,200 -2,488 Descending Los Angeles Center
Sun 09:54:49 AM 33.9969 -117.5000 273° West 394 453 11,000 -1,366 Descending Los Angeles Center
Sun 09:55:50 AM 34.0025 -117.6153 273° West 351 404 10,400 -639 Descending Los Angeles Center
Sun 09:56:51 AM 34.0058 -117.7156 272° West 311 358 9,700 -1,073 Descending Los Angeles Center
Sun 09:57:53 AM 34.0000 -117.8333 267° West 302 348 8,200 -1,306 Descending Southern California TRACON
Sun 09:58:55 AM 33.9833 -117.9333 259° West 289 333 7,000 -1,200 Descending Southern California TRACON
Sun 09:59:53 AM 33.9667 -118.0167 256° West 285 328 5,800 -1,322 Descending Southern California TRACON
Sun 10:00:53 AM 33.9667 -118.1167 270° West 274 315 4,400 -1,296 Descending Southern California TRACON
Sun 10:01:58 AM 33.9572 -118.1967 262° West 255 293 3,100 -1,095 Descending Los Angeles Center
Sun 10:02:59 AM 33.9508 -118.2606 263° West 214 246 2,100 -885 Descending Los Angeles Center
Sun 10:04:00 AM 33.9447 -118.3081 261° West 170 196 1,300 -732 Descending Los Angeles Center
Sun 10:05:02 AM 33.9411 -118.3533 265° West 148 170 600 -537 Descending Los Angeles Center
Sun 10:06:03 AM 33.9558 -118.3994 291° West 154 177 200 -393 Descending Los Angeles Center
Sun 10:08:00 AM 33.9425 -118.4081 270° West  Level Estimated

Login

Don't have an account? Register now (free) for customized features, flight alerts, and more!